Main page
METAR-TAF:

METAR-TAF

Airports :

Chennai International Airport

Chennai, India

latitude: 13-00N, longitude: 080-11E, elevation: 10 m

Current weather observation

The report was made 34 minutes ago, at 23:00 UTC
Wind 5 kt from the West/Southwest
Temperature 30°C
Humidity 59%
Pressure 1004 hPa
Visibility: 6000 m
Few clouds at a height of 2000 ft
Scattered clouds at a height of 10000 ft

METAR: VOMM 162300Z 25005KT 6000 FEW020 SCT100 30/21 Q1004 NOSIG

Time: 05:04 (23:34 UTC)

Forecast

The report was made 6 hours and 34 minutes ago, at 17:00 UTC
Forecast valid from 16 at 18 UTC to 17 at 24 UTC
Wind 10 kt from the West/Southwest
Visibility: 6000 m
Few clouds at a height of 2000 ft
Scattered clouds at a height of 10000 ft
Becoming
from 17 at 03 UTC to 17 at 04 UTC
Becoming
from 17 at 18 UTC to 17 at 19 UTC
Wind 10 kt from the West/Southwest

TAF: VOMM 161700Z 1618/1724 25010KT 6000 FEW020 SCT100 BECMG 1703/1704 25010G20T BECMG 1718/1719 25010KT

Weather observations and forecasts of more than 4000 airports (METAR and TAF reports).

The available stations are represented by yellow and red dots on the map.

Hover mouse over dot to see the name of the station.

Then click to see weather observations and forecasts.

To change the map : click on the green buttons with a black cross to zoom in, on the green button with a dash to zoom out, or on the green arrows for adjacent maps.


METAR-TAF: